Terminal Aerodrome Forecast
Issued by NWS

Home | Current Version | Previous Version | Text Only | Print | Product List | Glossary On
Versions: 1 2 3 4 5 6 7 8 9 10 11 12 13 14 15 16 17 18 19 20
000
FTUS41 KPBZ 242004 AAC
TAFZZV
TAF AMD
KZZV 242004Z 2420/2518 12011G14KT P6SM -RA BKN035
      TEMPO 2420/2422 BKN025
     FM242200 12008KT 6SM -RA BKN025
     FM250300 11008G12KT P6SM -SHRA OVC012
     FM251200 17008KT P6SM -SHRA OVC025
     FM251700 22008KT P6SM BKN050=

USA.gov is the U.S. government's official web portal to all federal, state and local government web resources and services.